sensor_id;sensor_type;location;lat;lon;timestamp;P1;durP1;ratioP1;P2;durP2;ratioP2
45049;SDS011;61798;48.048;-1.928;2023-05-19T00:00:13;4.28;;;2.13;;
45049;SDS011;61798;48.048;-1.928;2023-05-19T00:02:19;3.28;;;1.20;;
45049;SDS011;61798;48.048;-1.928;2023-05-19T00:04:26;6.57;;;2.17;;
45049;SDS011;61798;48.048;-1.928;2023-05-19T00:06:32;2.72;;;1.73;;
45049;SDS011;61798;48.048;-1.928;2023-05-19T00:08:38;3.13;;;1.90;;
45049;SDS011;61798;48.048;-1.928;2023-05-19T00:10:44;3.08;;;1.92;;
45049;SDS011;61798;48.048;-1.928;2023-05-19T00:12:51;3.88;;;1.52;;
45049;SDS011;61798;48.048;-1.928;2023-05-19T00:14:57;3.35;;;1.83;;
45049;SDS011;61798;48.048;-1.928;2023-05-19T00:17:02;5.25;;;1.63;;
45049;SDS011;61798;48.048;-1.928;2023-05-19T00:19:09;3.85;;;1.83;;
45049;SDS011;61798;48.048;-1.928;2023-05-19T00:21:14;3.10;;;1.40;;
45049;SDS011;61798;48.048;-1.928;2023-05-19T00:23:21;5.10;;;1.63;;
45049;SDS011;61798;48.048;-1.928;2023-05-19T00:25:26;3.95;;;1.63;;
45049;SDS011;61798;48.048;-1.928;2023-05-19T00:27:32;5.25;;;1.52;;
45049;SDS011;61798;48.048;-1.928;2023-05-19T00:29:38;3.40;;;1.33;;
45049;SDS011;61798;48.048;-1.928;2023-05-19T00:31:44;5.70;;;1.60;;
45049;SDS011;61798;48.048;-1.928;2023-05-19T00:33:50;4.45;;;1.83;;
45049;SDS011;61798;48.048;-1.928;2023-05-19T00:35:56;2.25;;;1.40;;
45049;SDS011;61798;48.048;-1.928;2023-05-19T00:38:02;2.65;;;1.50;;
45049;SDS011;61798;48.048;-1.928;2023-05-19T00:40:08;4.22;;;1.90;;
45049;SDS011;61798;48.048;-1.928;2023-05-19T00:42:15;9.93;;;2.05;;
45049;SDS011;61798;48.048;-1.928;2023-05-19T00:44:21;5.97;;;1.80;;
45049;SDS011;61798;48.048;-1.928;2023-05-19T00:46:26;4.68;;;1.15;;
45049;SDS011;61798;48.048;-1.928;2023-05-19T00:48:32;6.95;;;1.88;;
45049;SDS011;61798;48.048;-1.928;2023-05-19T00:50:38;4.68;;;1.58;;
45049;SDS011;61798;48.048;-1.928;2023-05-19T00:52:45;5.25;;;1.83;;
45049;SDS011;61798;48.048;-1.928;2023-05-19T00:54:51;12.50;;;2.00;;
45049;SDS011;61798;48.048;-1.928;2023-05-19T00:56:58;7.00;;;1.50;;
45049;SDS011;61798;48.048;-1.928;2023-05-19T00:59:05;3.88;;;1.70;;
45049;SDS011;61798;48.048;-1.928;2023-05-19T01:01:11;8.07;;;1.65;;
45049;SDS011;61798;48.048;-1.928;2023-05-19T01:03:18;4.00;;;1.70;;
45049;SDS011;61798;48.048;-1.928;2023-05-19T01:05:24;3.58;;;1.80;;
45049;SDS011;61798;48.048;-1.928;2023-05-19T01:07:31;2.95;;;1.80;;
45049;SDS011;61798;48.048;-1.928;2023-05-19T01:09:37;5.55;;;2.03;;
45049;SDS011;61798;48.048;-1.928;2023-05-19T01:11:45;7.80;;;2.03;;
45049;SDS011;61798;48.048;-1.928;2023-05-19T01:13:50;5.80;;;2.00;;
45049;SDS011;61798;48.048;-1.928;2023-05-19T01:18:13;4.13;;;1.80;;
45049;SDS011;61798;48.048;-1.928;2023-05-19T01:20:26;2.42;;;1.42;;
45049;SDS011;61798;48.048;-1.928;2023-05-19T01:32:10;5.95;;;2.10;;
45049;SDS011;61798;48.048;-1.928;2023-05-19T01:34:16;2.65;;;1.77;;
45049;SDS011;61798;48.048;-1.928;2023-05-19T01:36:25;5.80;;;2.00;;
45049;SDS011;61798;48.048;-1.928;2023-05-19T01:38:32;7.50;;;2.20;;
45049;SDS011;61798;48.048;-1.928;2023-05-19T01:40:39;5.63;;;2.15;;
45049;SDS011;61798;48.048;-1.928;2023-05-19T01:42:46;6.57;;;2.63;;
45049;SDS011;61798;48.048;-1.928;2023-05-19T01:44:53;5.95;;;2.17;;
45049;SDS011;61798;48.048;-1.928;2023-05-19T01:47:00;3.08;;;1.80;;
45049;SDS011;61798;48.048;-1.928;2023-05-19T01:49:06;6.32;;;2.58;;
45049;SDS011;61798;48.048;-1.928;2023-05-19T01:51:13;7.15;;;2.67;;
45049;SDS011;61798;48.048;-1.928;2023-05-19T01:53:19;4.78;;;2.20;;
45049;SDS011;61798;48.048;-1.928;2023-05-19T01:55:24;8.48;;;2.42;;
45049;SDS011;61798;48.048;-1.928;2023-05-19T02:05:08;4.07;;;2.63;;
45049;SDS011;61798;48.048;-1.928;2023-05-19T02:10:05;4.53;;;2.22;;
45049;SDS011;61798;48.048;-1.928;2023-05-19T02:14:48;4.15;;;2.70;;
45049;SDS011;61798;48.048;-1.928;2023-05-19T02:17:01;5.18;;;2.33;;
45049;SDS011;61798;48.048;-1.928;2023-05-19T02:19:18;2.80;;;1.73;;
45049;SDS011;61798;48.048;-1.928;2023-05-19T02:21:38;8.98;;;2.50;;
45049;SDS011;61798;48.048;-1.928;2023-05-19T02:23:45;3.08;;;1.77;;
45049;SDS011;61798;48.048;-1.928;2023-05-19T02:25:51;3.42;;;2.17;;
45049;SDS011;61798;48.048;-1.928;2023-05-19T02:27:57;6.32;;;2.40;;
45049;SDS011;61798;48.048;-1.928;2023-05-19T02:30:05;3.17;;;2.00;;
45049;SDS011;61798;48.048;-1.928;2023-05-19T02:32:12;11.75;;;2.65;;
45049;SDS011;61798;48.048;-1.928;2023-05-19T02:34:19;5.22;;;2.40;;
45049;SDS011;61798;48.048;-1.928;2023-05-19T02:36:25;3.58;;;2.08;;
45049;SDS011;61798;48.048;-1.928;2023-05-19T02:38:31;4.60;;;2.15;;
45049;SDS011;61798;48.048;-1.928;2023-05-19T02:40:36;5.03;;;2.25;;
45049;SDS011;61798;48.048;-1.928;2023-05-19T02:42:42;4.50;;;2.35;;
45049;SDS011;61798;48.048;-1.928;2023-05-19T02:44:48;10.40;;;3.00;;
45049;SDS011;61798;48.048;-1.928;2023-05-19T02:46:54;4.97;;;2.30;;
45049;SDS011;61798;48.048;-1.928;2023-05-19T02:49:00;4.50;;;2.00;;
45049;SDS011;61798;48.048;-1.928;2023-05-19T02:51:06;3.83;;;2.35;;
45049;SDS011;61798;48.048;-1.928;2023-05-19T02:53:11;5.13;;;1.90;;
45049;SDS011;61798;48.048;-1.928;2023-05-19T02:55:17;3.80;;;2.08;;
45049;SDS011;61798;48.048;-1.928;2023-05-19T02:57:23;6.70;;;2.42;;
45049;SDS011;61798;48.048;-1.928;2023-05-19T02:59:30;8.80;;;1.90;;
45049;SDS011;61798;48.048;-1.928;2023-05-19T03:01:36;6.35;;;2.38;;
45049;SDS011;61798;48.048;-1.928;2023-05-19T03:03:42;4.68;;;2.53;;
45049;SDS011;61798;48.048;-1.928;2023-05-19T03:05:48;15.48;;;3.00;;
45049;SDS011;61798;48.048;-1.928;2023-05-19T03:07:54;6.28;;;3.20;;
45049;SDS011;61798;48.048;-1.928;2023-05-19T03:10:00;6.43;;;2.47;;
45049;SDS011;61798;48.048;-1.928;2023-05-19T03:12:10;6.20;;;2.17;;
45049;SDS011;61798;48.048;-1.928;2023-05-19T03:14:16;8.80;;;2.80;;
45049;SDS011;61798;48.048;-1.928;2023-05-19T03:16:23;6.75;;;2.35;;
45049;SDS011;61798;48.048;-1.928;2023-05-19T03:18:29;8.32;;;2.13;;
45049;SDS011;61798;48.048;-1.928;2023-05-19T03:20:35;12.30;;;2.22;;
45049;SDS011;61798;48.048;-1.928;2023-05-19T03:22:40;7.90;;;2.35;;
45049;SDS011;61798;48.048;-1.928;2023-05-19T03:24:46;9.20;;;2.58;;
45049;SDS011;61798;48.048;-1.928;2023-05-19T03:26:55;6.47;;;2.03;;
45049;SDS011;61798;48.048;-1.928;2023-05-19T03:29:01;10.23;;;2.92;;
45049;SDS011;61798;48.048;-1.928;2023-05-19T03:31:06;10.27;;;2.90;;
45049;SDS011;61798;48.048;-1.928;2023-05-19T03:33:12;10.13;;;3.03;;
45049;SDS011;61798;48.048;-1.928;2023-05-19T03:35:18;7.63;;;3.00;;
45049;SDS011;61798;48.048;-1.928;2023-05-19T03:37:24;5.55;;;2.55;;
45049;SDS011;61798;48.048;-1.928;2023-05-19T03:39:30;5.15;;;2.65;;
45049;SDS011;61798;48.048;-1.928;2023-05-19T03:41:35;5.88;;;2.50;;
45049;SDS011;61798;48.048;-1.928;2023-05-19T03:43:41;7.65;;;3.13;;
45049;SDS011;61798;48.048;-1.928;2023-05-19T03:45:47;4.03;;;2.40;;
45049;SDS011;61798;48.048;-1.928;2023-05-19T03:47:53;7.15;;;3.25;;
45049;SDS011;61798;48.048;-1.928;2023-05-19T03:49:59;6.80;;;2.42;;
45049;SDS011;61798;48.048;-1.928;2023-05-19T03:52:05;7.13;;;3.17;;
45049;SDS011;61798;48.048;-1.928;2023-05-19T03:54:11;3.45;;;1.90;;
45049;SDS011;61798;48.048;-1.928;2023-05-19T03:56:17;6.78;;;2.67;;
45049;SDS011;61798;48.048;-1.928;2023-05-19T03:58:23;6.10;;;2.92;;
45049;SDS011;61798;48.048;-1.928;2023-05-19T04:00:28;6.90;;;2.75;;
45049;SDS011;61798;48.048;-1.928;2023-05-19T04:02:34;13.55;;;2.85;;
45049;SDS011;61798;48.048;-1.928;2023-05-19T04:04:40;4.90;;;2.53;;
45049;SDS011;61798;48.048;-1.928;2023-05-19T04:06:46;8.05;;;3.20;;
45049;SDS011;61798;48.048;-1.928;2023-05-19T04:08:53;8.63;;;2.97;;
45049;SDS011;61798;48.048;-1.928;2023-05-19T04:10:59;6.88;;;2.47;;
45049;SDS011;61798;48.048;-1.928;2023-05-19T04:13:05;6.07;;;2.63;;
45049;SDS011;61798;48.048;-1.928;2023-05-19T04:15:10;11.65;;;2.97;;
45049;SDS011;61798;48.048;-1.928;2023-05-19T04:17:17;5.85;;;2.40;;
45049;SDS011;61798;48.048;-1.928;2023-05-19T04:19:22;6.43;;;2.97;;
45049;SDS011;61798;48.048;-1.928;2023-05-19T04:21:28;6.18;;;2.70;;
45049;SDS011;61798;48.048;-1.928;2023-05-19T04:23:34;5.95;;;3.08;;
45049;SDS011;61798;48.048;-1.928;2023-05-19T04:25:40;7.18;;;3.17;;
45049;SDS011;61798;48.048;-1.928;2023-05-19T04:27:46;6.43;;;3.20;;
45049;SDS011;61798;48.048;-1.928;2023-05-19T04:29:53;4.80;;;2.70;;
45049;SDS011;61798;48.048;-1.928;2023-05-19T04:31:59;7.55;;;3.03;;
45049;SDS011;61798;48.048;-1.928;2023-05-19T04:34:05;8.50;;;3.38;;
45049;SDS011;61798;48.048;-1.928;2023-05-19T04:36:14;9.52;;;3.33;;
45049;SDS011;61798;48.048;-1.928;2023-05-19T04:38:22;9.50;;;2.90;;
45049;SDS011;61798;48.048;-1.928;2023-05-19T04:40:28;9.73;;;2.83;;
45049;SDS011;61798;48.048;-1.928;2023-05-19T04:42:35;6.75;;;3.00;;
45049;SDS011;61798;48.048;-1.928;2023-05-19T04:44:41;14.27;;;3.38;;
45049;SDS011;61798;48.048;-1.928;2023-05-19T04:46:47;9.73;;;3.28;;
45049;SDS011;61798;48.048;-1.928;2023-05-19T04:48:52;6.72;;;2.90;;
45049;SDS011;61798;48.048;-1.928;2023-05-19T04:50:59;11.55;;;3.72;;
45049;SDS011;61798;48.048;-1.928;2023-05-19T04:53:07;7.18;;;3.63;;
45049;SDS011;61798;48.048;-1.928;2023-05-19T04:55:14;11.35;;;3.60;;
45049;SDS011;61798;48.048;-1.928;2023-05-19T04:57:20;8.85;;;3.28;;
45049;SDS011;61798;48.048;-1.928;2023-05-19T04:59:26;7.32;;;3.55;;
45049;SDS011;61798;48.048;-1.928;2023-05-19T05:01:31;7.53;;;3.30;;
45049;SDS011;61798;48.048;-1.928;2023-05-19T05:03:38;9.82;;;3.80;;
45049;SDS011;61798;48.048;-1.928;2023-05-19T05:05:44;8.40;;;2.80;;
45049;SDS011;61798;48.048;-1.928;2023-05-19T05:07:49;12.52;;;3.83;;
45049;SDS011;61798;48.048;-1.928;2023-05-19T05:09:58;6.72;;;3.10;;
45049;SDS011;61798;48.048;-1.928;2023-05-19T05:12:04;7.15;;;3.45;;
45049;SDS011;61798;48.048;-1.928;2023-05-19T05:14:12;6.25;;;3.40;;
45049;SDS011;61798;48.048;-1.928;2023-05-19T05:16:18;9.40;;;2.85;;
45049;SDS011;61798;48.048;-1.928;2023-05-19T05:18:24;5.93;;;3.35;;
45049;SDS011;61798;48.048;-1.928;2023-05-19T05:20:30;7.00;;;2.90;;
45049;SDS011;61798;48.048;-1.928;2023-05-19T05:22:36;6.35;;;3.13;;
45049;SDS011;61798;48.048;-1.928;2023-05-19T05:24:46;11.52;;;3.95;;
45049;SDS011;61798;48.048;-1.928;2023-05-19T05:26:52;11.40;;;3.70;;
45049;SDS011;61798;48.048;-1.928;2023-05-19T05:28:58;11.52;;;4.15;;
45049;SDS011;61798;48.048;-1.928;2023-05-19T05:31:04;7.13;;;3.72;;
45049;SDS011;61798;48.048;-1.928;2023-05-19T05:33:10;9.15;;;4.18;;
45049;SDS011;61798;48.048;-1.928;2023-05-19T05:35:16;11.40;;;4.07;;
45049;SDS011;61798;48.048;-1.928;2023-05-19T05:37:22;6.65;;;3.45;;
45049;SDS011;61798;48.048;-1.928;2023-05-19T05:39:28;10.02;;;3.83;;
45049;SDS011;61798;48.048;-1.928;2023-05-19T05:41:34;10.57;;;3.75;;
45049;SDS011;61798;48.048;-1.928;2023-05-19T05:43:40;5.55;;;3.10;;
45049;SDS011;61798;48.048;-1.928;2023-05-19T05:45:46;9.00;;;3.70;;
45049;SDS011;61798;48.048;-1.928;2023-05-19T05:47:52;6.07;;;3.40;;
45049;SDS011;61798;48.048;-1.928;2023-05-19T05:49:58;6.32;;;3.58;;
45049;SDS011;61798;48.048;-1.928;2023-05-19T05:52:05;14.80;;;4.43;;
45049;SDS011;61798;48.048;-1.928;2023-05-19T05:54:12;9.75;;;4.30;;
45049;SDS011;61798;48.048;-1.928;2023-05-19T05:56:21;10.68;;;4.28;;
45049;SDS011;61798;48.048;-1.928;2023-05-19T05:58:27;11.18;;;4.38;;
45049;SDS011;61798;48.048;-1.928;2023-05-19T06:00:33;11.02;;;3.72;;
45049;SDS011;61798;48.048;-1.928;2023-05-19T06:02:39;6.45;;;3.45;;
45049;SDS011;61798;48.048;-1.928;2023-05-19T06:04:47;7.75;;;3.85;;
45049;SDS011;61798;48.048;-1.928;2023-05-19T06:06:53;9.13;;;3.90;;
45049;SDS011;61798;48.048;-1.928;2023-05-19T06:09:01;7.82;;;4.03;;
45049;SDS011;61798;48.048;-1.928;2023-05-19T06:11:07;10.95;;;4.40;;
45049;SDS011;61798;48.048;-1.928;2023-05-19T06:13:13;8.68;;;3.97;;
45049;SDS011;61798;48.048;-1.928;2023-05-19T06:15:22;10.13;;;3.78;;
45049;SDS011;61798;48.048;-1.928;2023-05-19T06:17:28;14.73;;;4.88;;
45049;SDS011;61798;48.048;-1.928;2023-05-19T06:19:34;10.13;;;3.72;;
45049;SDS011;61798;48.048;-1.928;2023-05-19T06:21:40;14.05;;;4.70;;
45049;SDS011;61798;48.048;-1.928;2023-05-19T06:23:47;8.13;;;4.15;;
45049;SDS011;61798;48.048;-1.928;2023-05-19T06:25:53;8.45;;;4.00;;
45049;SDS011;61798;48.048;-1.928;2023-05-19T06:27:59;11.48;;;3.85;;
45049;SDS011;61798;48.048;-1.928;2023-05-19T06:30:05;9.73;;;4.22;;
45049;SDS011;61798;48.048;-1.928;2023-05-19T06:32:12;10.43;;;4.50;;
45049;SDS011;61798;48.048;-1.928;2023-05-19T06:34:18;17.08;;;5.18;;
45049;SDS011;61798;48.048;-1.928;2023-05-19T06:36:25;10.45;;;4.43;;
45049;SDS011;61798;48.048;-1.928;2023-05-19T06:38:31;10.27;;;4.50;;
45049;SDS011;61798;48.048;-1.928;2023-05-19T06:40:36;11.10;;;4.25;;
45049;SDS011;61798;48.048;-1.928;2023-05-19T06:42:42;11.27;;;4.38;;
45049;SDS011;61798;48.048;-1.928;2023-05-19T06:44:48;10.65;;;4.50;;
45049;SDS011;61798;48.048;-1.928;2023-05-19T06:46:54;7.55;;;3.95;;
45049;SDS011;61798;48.048;-1.928;2023-05-19T06:49:00;11.23;;;5.05;;
45049;SDS011;61798;48.048;-1.928;2023-05-19T06:51:06;10.30;;;4.35;;
45049;SDS011;61798;48.048;-1.928;2023-05-19T06:53:15;11.25;;;4.25;;
45049;SDS011;61798;48.048;-1.928;2023-05-19T06:55:21;10.70;;;4.65;;
45049;SDS011;61798;48.048;-1.928;2023-05-19T06:57:27;10.73;;;4.25;;
45049;SDS011;61798;48.048;-1.928;2023-05-19T06:59:33;8.43;;;4.05;;
45049;SDS011;61798;48.048;-1.928;2023-05-19T07:01:38;11.27;;;4.60;;
45049;SDS011;61798;48.048;-1.928;2023-05-19T07:03:44;11.48;;;4.40;;
45049;SDS011;61798;48.048;-1.928;2023-05-19T07:05:51;10.20;;;4.55;;
45049;SDS011;61798;48.048;-1.928;2023-05-19T07:07:57;20.45;;;4.53;;
45049;SDS011;61798;48.048;-1.928;2023-05-19T07:10:03;9.95;;;4.13;;
45049;SDS011;61798;48.048;-1.928;2023-05-19T07:12:09;9.48;;;4.28;;
45049;SDS011;61798;48.048;-1.928;2023-05-19T07:14:15;10.98;;;4.95;;
45049;SDS011;61798;48.048;-1.928;2023-05-19T07:16:21;9.88;;;3.58;;
45049;SDS011;61798;48.048;-1.928;2023-05-19T07:18:27;9.05;;;4.05;;
45049;SDS011;61798;48.048;-1.928;2023-05-19T07:20:36;9.35;;;4.10;;
45049;SDS011;61798;48.048;-1.928;2023-05-19T07:22:41;7.68;;;3.70;;
45049;SDS011;61798;48.048;-1.928;2023-05-19T07:24:47;12.02;;;4.47;;
45049;SDS011;61798;48.048;-1.928;2023-05-19T07:26:53;12.82;;;4.28;;
45049;SDS011;61798;48.048;-1.928;2023-05-19T07:28:59;11.65;;;4.15;;
45049;SDS011;61798;48.048;-1.928;2023-05-19T07:31:05;12.60;;;4.30;;
45049;SDS011;61798;48.048;-1.928;2023-05-19T07:33:10;12.68;;;4.38;;
45049;SDS011;61798;48.048;-1.928;2023-05-19T07:35:16;10.45;;;3.70;;
45049;SDS011;61798;48.048;-1.928;2023-05-19T07:37:22;14.00;;;4.13;;
45049;SDS011;61798;48.048;-1.928;2023-05-19T07:39:28;9.57;;;4.55;;
45049;SDS011;61798;48.048;-1.928;2023-05-19T07:41:36;13.75;;;3.97;;
45049;SDS011;61798;48.048;-1.928;2023-05-19T07:43:42;7.47;;;3.80;;
45049;SDS011;61798;48.048;-1.928;2023-05-19T07:45:48;9.00;;;3.75;;
45049;SDS011;61798;48.048;-1.928;2023-05-19T07:47:54;7.72;;;3.42;;
45049;SDS011;61798;48.048;-1.928;2023-05-19T07:50:00;4.97;;;2.92;;
45049;SDS011;61798;48.048;-1.928;2023-05-19T07:52:05;10.13;;;3.63;;
45049;SDS011;61798;48.048;-1.928;2023-05-19T07:54:11;6.00;;;2.83;;
45049;SDS011;61798;48.048;-1.928;2023-05-19T07:56:17;9.70;;;3.40;;
45049;SDS011;61798;48.048;-1.928;2023-05-19T07:58:23;15.30;;;3.40;;
45049;SDS011;61798;48.048;-1.928;2023-05-19T08:00:29;8.00;;;3.15;;
45049;SDS011;61798;48.048;-1.928;2023-05-19T08:02:35;13.18;;;4.40;;
45049;SDS011;61798;48.048;-1.928;2023-05-19T08:04:41;10.43;;;2.50;;
45049;SDS011;61798;48.048;-1.928;2023-05-19T08:06:47;8.73;;;2.67;;
45049;SDS011;61798;48.048;-1.928;2023-05-19T08:08:53;10.43;;;3.08;;
45049;SDS011;61798;48.048;-1.928;2023-05-19T08:11:02;10.20;;;2.78;;
45049;SDS011;61798;48.048;-1.928;2023-05-19T08:13:08;10.32;;;3.30;;
45049;SDS011;61798;48.048;-1.928;2023-05-19T08:15:14;10.27;;;2.63;;
45049;SDS011;61798;48.048;-1.928;2023-05-19T08:17:20;6.90;;;2.78;;
45049;SDS011;61798;48.048;-1.928;2023-05-19T08:19:27;5.82;;;2.95;;
45049;SDS011;61798;48.048;-1.928;2023-05-19T08:21:33;8.65;;;2.60;;
45049;SDS011;61798;48.048;-1.928;2023-05-19T08:23:39;9.40;;;2.83;;
45049;SDS011;61798;48.048;-1.928;2023-05-19T08:25:45;9.40;;;3.05;;
45049;SDS011;61798;48.048;-1.928;2023-05-19T08:27:51;8.63;;;2.88;;
45049;SDS011;61798;48.048;-1.928;2023-05-19T08:29:57;7.78;;;2.83;;
45049;SDS011;61798;48.048;-1.928;2023-05-19T08:32:04;7.40;;;3.13;;
45049;SDS011;61798;48.048;-1.928;2023-05-19T08:34:10;6.80;;;2.53;;
45049;SDS011;61798;48.048;-1.928;2023-05-19T08:36:16;9.40;;;2.75;;
45049;SDS011;61798;48.048;-1.928;2023-05-19T08:38:22;6.95;;;2.65;;
45049;SDS011;61798;48.048;-1.928;2023-05-19T08:40:28;7.88;;;2.75;;
45049;SDS011;61798;48.048;-1.928;2023-05-19T08:42:35;7.40;;;2.80;;
45049;SDS011;61798;48.048;-1.928;2023-05-19T08:44:41;5.90;;;2.45;;
45049;SDS011;61798;48.048;-1.928;2023-05-19T08:46:48;4.60;;;2.20;;
45049;SDS011;61798;48.048;-1.928;2023-05-19T08:48:57;13.43;;;2.50;;
45049;SDS011;61798;48.048;-1.928;2023-05-19T08:53:26;4.72;;;2.58;;
45049;SDS011;61798;48.048;-1.928;2023-05-19T08:55:39;5.15;;;2.33;;
45049;SDS011;61798;48.048;-1.928;2023-05-19T08:57:51;3.63;;;2.45;;
45049;SDS011;61798;48.048;-1.928;2023-05-19T08:59:57;7.95;;;2.42;;
45049;SDS011;61798;48.048;-1.928;2023-05-19T09:02:04;7.03;;;2.30;;
45049;SDS011;61798;48.048;-1.928;2023-05-19T09:04:11;6.57;;;2.15;;
45049;SDS011;61798;48.048;-1.928;2023-05-19T09:06:17;8.60;;;2.60;;
45049;SDS011;61798;48.048;-1.928;2023-05-19T09:08:23;5.68;;;2.45;;
45049;SDS011;61798;48.048;-1.928;2023-05-19T09:10:29;8.20;;;2.67;;
45049;SDS011;61798;48.048;-1.928;2023-05-19T09:12:34;8.80;;;2.65;;
45049;SDS011;61798;48.048;-1.928;2023-05-19T09:14:41;7.45;;;2.50;;
45049;SDS011;61798;48.048;-1.928;2023-05-19T09:16:47;4.95;;;2.13;;
45049;SDS011;61798;48.048;-1.928;2023-05-19T09:18:56;4.45;;;2.22;;
45049;SDS011;61798;48.048;-1.928;2023-05-19T09:21:03;9.00;;;2.80;;
45049;SDS011;61798;48.048;-1.928;2023-05-19T09:23:14;4.05;;;2.42;;
45049;SDS011;61798;48.048;-1.928;2023-05-19T09:25:21;11.32;;;2.45;;
45049;SDS011;61798;48.048;-1.928;2023-05-19T09:27:28;9.05;;;3.22;;
45049;SDS011;61798;48.048;-1.928;2023-05-19T09:29:38;5.75;;;2.15;;
45049;SDS011;61798;48.048;-1.928;2023-05-19T09:34:00;6.53;;;2.58;;
45049;SDS011;61798;48.048;-1.928;2023-05-19T09:36:06;10.98;;;2.80;;
45049;SDS011;61798;48.048;-1.928;2023-05-19T09:38:18;6.20;;;2.75;;
45049;SDS011;61798;48.048;-1.928;2023-05-19T09:40:25;5.22;;;2.50;;
45049;SDS011;61798;48.048;-1.928;2023-05-19T09:42:32;4.75;;;2.20;;
45049;SDS011;61798;48.048;-1.928;2023-05-19T09:44:42;7.20;;;2.28;;
45049;SDS011;61798;48.048;-1.928;2023-05-19T09:46:51;5.60;;;2.47;;
45049;SDS011;61798;48.048;-1.928;2023-05-19T09:48:58;5.47;;;2.53;;
45049;SDS011;61798;48.048;-1.928;2023-05-19T09:51:05;7.30;;;2.63;;
45049;SDS011;61798;48.048;-1.928;2023-05-19T09:53:12;4.13;;;2.20;;
45049;SDS011;61798;48.048;-1.928;2023-05-19T09:55:19;4.72;;;1.85;;
45049;SDS011;61798;48.048;-1.928;2023-05-19T09:57:31;8.15;;;2.38;;
45049;SDS011;61798;48.048;-1.928;2023-05-19T09:59:38;5.75;;;2.20;;
45049;SDS011;61798;48.048;-1.928;2023-05-19T10:01:46;7.32;;;2.20;;
45049;SDS011;61798;48.048;-1.928;2023-05-19T10:03:53;4.30;;;2.22;;
45049;SDS011;61798;48.048;-1.928;2023-05-19T10:06:05;5.30;;;2.28;;
45049;SDS011;61798;48.048;-1.928;2023-05-19T10:08:13;4.40;;;2.25;;
45049;SDS011;61798;48.048;-1.928;2023-05-19T10:10:22;5.10;;;2.83;;
45049;SDS011;61798;48.048;-1.928;2023-05-19T10:12:28;5.22;;;2.35;;
45049;SDS011;61798;48.048;-1.928;2023-05-19T10:14:35;12.35;;;2.67;;
45049;SDS011;61798;48.048;-1.928;2023-05-19T10:16:42;4.82;;;2.50;;
45049;SDS011;61798;48.048;-1.928;2023-05-19T10:18:48;5.15;;;2.30;;
45049;SDS011;61798;48.048;-1.928;2023-05-19T10:20:57;5.78;;;2.47;;
45049;SDS011;61798;48.048;-1.928;2023-05-19T10:23:04;6.03;;;2.92;;
45049;SDS011;61798;48.048;-1.928;2023-05-19T10:25:11;4.88;;;2.70;;
45049;SDS011;61798;48.048;-1.928;2023-05-19T10:27:22;6.93;;;2.53;;
45049;SDS011;61798;48.048;-1.928;2023-05-19T10:29:33;4.13;;;2.63;;
45049;SDS011;61798;48.048;-1.928;2023-05-19T10:31:42;6.05;;;1.98;;
45049;SDS011;61798;48.048;-1.928;2023-05-19T10:33:55;5.47;;;2.78;;
45049;SDS011;61798;48.048;-1.928;2023-05-19T10:36:28;5.30;;;2.08;;
45049;SDS011;61798;48.048;-1.928;2023-05-19T10:39:05;8.30;;;2.17;;
45049;SDS011;61798;48.048;-1.928;2023-05-19T10:41:26;5.20;;;2.00;;
45049;SDS011;61798;48.048;-1.928;2023-05-19T10:46:05;4.70;;;2.20;;
45049;SDS011;61798;48.048;-1.928;2023-05-19T10:48:12;5.95;;;2.45;;
45049;SDS011;61798;48.048;-1.928;2023-05-19T10:50:19;6.88;;;2.40;;
45049;SDS011;61798;48.048;-1.928;2023-05-19T10:52:26;5.03;;;2.00;;
45049;SDS011;61798;48.048;-1.928;2023-05-19T10:54:41;4.97;;;2.40;;
45049;SDS011;61798;48.048;-1.928;2023-05-19T10:56:51;7.18;;;2.50;;
45049;SDS011;61798;48.048;-1.928;2023-05-19T10:59:02;4.03;;;2.35;;
45049;SDS011;61798;48.048;-1.928;2023-05-19T11:01:09;5.68;;;2.85;;
45049;SDS011;61798;48.048;-1.928;2023-05-19T11:03:18;9.13;;;2.70;;
45049;SDS011;61798;48.048;-1.928;2023-05-19T11:05:28;5.80;;;2.42;;
45049;SDS011;61798;48.048;-1.928;2023-05-19T11:07:34;10.15;;;3.22;;
45049;SDS011;61798;48.048;-1.928;2023-05-19T11:09:40;4.70;;;2.20;;
45049;SDS011;61798;48.048;-1.928;2023-05-19T11:11:46;5.63;;;2.83;;
45049;SDS011;61798;48.048;-1.928;2023-05-19T11:13:54;4.50;;;2.58;;
45049;SDS011;61798;48.048;-1.928;2023-05-19T11:16:05;8.43;;;2.78;;
45049;SDS011;61798;48.048;-1.928;2023-05-19T11:18:12;4.28;;;2.45;;
45049;SDS011;61798;48.048;-1.928;2023-05-19T11:20:27;7.53;;;3.22;;
45049;SDS011;61798;48.048;-1.928;2023-05-19T11:22:34;6.45;;;2.78;;
45049;SDS011;61798;48.048;-1.928;2023-05-19T11:24:47;5.47;;;2.63;;
45049;SDS011;61798;48.048;-1.928;2023-05-19T11:26:54;6.13;;;2.45;;
45049;SDS011;61798;48.048;-1.928;2023-05-19T11:29:01;9.90;;;2.80;;
45049;SDS011;61798;48.048;-1.928;2023-05-19T11:31:08;6.22;;;3.00;;
45049;SDS011;61798;48.048;-1.928;2023-05-19T11:33:15;11.48;;;3.78;;
45049;SDS011;61798;48.048;-1.928;2023-05-19T11:35:23;6.32;;;2.10;;
45049;SDS011;61798;48.048;-1.928;2023-05-19T11:37:30;7.38;;;3.38;;
45049;SDS011;61798;48.048;-1.928;2023-05-19T11:39:38;8.32;;;2.63;;
45049;SDS011;61798;48.048;-1.928;2023-05-19T11:41:44;7.45;;;2.60;;
45049;SDS011;61798;48.048;-1.928;2023-05-19T11:43:50;8.77;;;2.83;;
45049;SDS011;61798;48.048;-1.928;2023-05-19T11:45:56;5.30;;;2.55;;
45049;SDS011;61798;48.048;-1.928;2023-05-19T11:48:02;8.23;;;2.83;;
45049;SDS011;61798;48.048;-1.928;2023-05-19T11:50:09;9.27;;;3.25;;
45049;SDS011;61798;48.048;-1.928;2023-05-19T11:52:18;7.78;;;2.90;;
45049;SDS011;61798;48.048;-1.928;2023-05-19T11:54:30;9.38;;;3.38;;
45049;SDS011;61798;48.048;-1.928;2023-05-19T11:56:40;6.00;;;2.75;;
45049;SDS011;61798;48.048;-1.928;2023-05-19T11:58:47;9.32;;;2.80;;
45049;SDS011;61798;48.048;-1.928;2023-05-19T12:00:53;7.90;;;2.63;;
45049;SDS011;61798;48.048;-1.928;2023-05-19T12:02:59;8.57;;;2.83;;
45049;SDS011;61798;48.048;-1.928;2023-05-19T12:05:06;6.20;;;3.10;;
45049;SDS011;61798;48.048;-1.928;2023-05-19T12:07:23;9.27;;;3.75;;
45049;SDS011;61798;48.048;-1.928;2023-05-19T12:09:29;5.53;;;2.80;;
45049;SDS011;61798;48.048;-1.928;2023-05-19T12:11:35;3.83;;;2.20;;
45049;SDS011;61798;48.048;-1.928;2023-05-19T12:13:42;7.60;;;3.03;;
45049;SDS011;61798;48.048;-1.928;2023-05-19T12:15:51;13.18;;;4.07;;
45049;SDS011;61798;48.048;-1.928;2023-05-19T12:17:59;6.20;;;3.20;;
45049;SDS011;61798;48.048;-1.928;2023-05-19T12:20:06;9.38;;;2.88;;
45049;SDS011;61798;48.048;-1.928;2023-05-19T12:22:13;7.78;;;3.17;;
45049;SDS011;61798;48.048;-1.928;2023-05-19T12:24:20;13.52;;;3.45;;
45049;SDS011;61798;48.048;-1.928;2023-05-19T12:26:26;6.68;;;2.88;;
45049;SDS011;61798;48.048;-1.928;2023-05-19T12:28:32;5.63;;;2.83;;
45049;SDS011;61798;48.048;-1.928;2023-05-19T12:30:38;11.13;;;3.03;;
45049;SDS011;61798;48.048;-1.928;2023-05-19T12:32:44;4.72;;;2.53;;
45049;SDS011;61798;48.048;-1.928;2023-05-19T12:34:51;6.93;;;2.90;;
45049;SDS011;61798;48.048;-1.928;2023-05-19T12:36:58;6.30;;;2.50;;
45049;SDS011;61798;48.048;-1.928;2023-05-19T12:39:06;5.65;;;2.67;;
45049;SDS011;61798;48.048;-1.928;2023-05-19T12:41:13;5.80;;;3.00;;
45049;SDS011;61798;48.048;-1.928;2023-05-19T12:43:23;7.43;;;2.95;;
45049;SDS011;61798;48.048;-1.928;2023-05-19T12:45:33;7.85;;;2.92;;
45049;SDS011;61798;48.048;-1.928;2023-05-19T12:47:39;3.45;;;2.22;;
45049;SDS011;61798;48.048;-1.928;2023-05-19T12:49:55;3.58;;;2.00;;
45049;SDS011;61798;48.048;-1.928;2023-05-19T12:52:05;6.13;;;2.58;;
45049;SDS011;61798;48.048;-1.928;2023-05-19T12:54:10;6.50;;;2.53;;
45049;SDS011;61798;48.048;-1.928;2023-05-19T12:56:17;6.82;;;2.90;;
45049;SDS011;61798;48.048;-1.928;2023-05-19T12:58:23;7.50;;;3.08;;
45049;SDS011;61798;48.048;-1.928;2023-05-19T13:00:29;6.32;;;2.28;;
45049;SDS011;61798;48.048;-1.928;2023-05-19T13:02:53;6.32;;;2.58;;